Time;durP1;ratioP1;P1;durP2;ratioP2;P2;SDS_P1;SDS_P2;PMS_P1;PMS_P2;Temp;Humidity;BMP_temperature;BMP_pressure;BME280_temperature;BME280_humidity;BME280_pressure;Samples;Min_cycle;Max_cycle;Signal;HPM_P1;HPM_P2
2023/12/20 00:02:17;;;;;;;9.90;7.67;;;9.40;99.90;;;;;;4998374;28;20484;-78
2023/12/20 00:04:46;;;;;;;9.80;7.70;;;9.40;99.90;;;;;;5002222;28;20436;-78
2023/12/20 00:07:13;;;;;;;9.90;7.67;;;9.40;99.90;;;;;;5000364;28;20876;-79
2023/12/20 00:09:42;;;;;;;8.17;6.70;;;9.40;99.90;;;;;;4980741;28;20515;-78
2023/12/20 00:12:08;;;;;;;8.60;6.50;;;9.40;99.90;;;;;;5007762;28;20451;-78
2023/12/20 00:14:33;;;;;;;8.70;6.40;;;9.40;99.90;;;;;;4995957;28;20571;-79
2023/12/20 00:16:59;;;;;;;11.20;6.60;;;9.40;99.90;;;;;;4988960;28;20469;-87
2023/12/20 00:19:25;;;;;;;9.30;7.33;;;9.40;99.90;;;;;;4964457;28;20949;-87
2023/12/20 00:21:54;;;;;;;9.23;6.37;;;9.40;99.90;;;;;;4995451;28;20488;-86
2023/12/20 00:24:20;;;;;;;8.00;6.33;;;9.40;99.90;;;;;;5012954;28;20436;-86
2023/12/20 00:26:49;;;;;;;6.60;5.60;;;9.40;99.90;;;;;;4980184;28;20425;-86
2023/12/20 00:29:20;;;;;;;9.60;6.67;;;9.40;99.90;;;;;;4968546;28;20453;-86
2023/12/20 00:31:48;;;;;;;10.93;7.03;;;9.40;99.90;;;;;;5005536;28;20531;-86
2023/12/20 00:34:14;;;;;;;6.57;5.83;;;9.40;99.90;;;;;;5003672;28;21362;-85
2023/12/20 00:36:39;;;;;;;7.70;6.20;;;9.40;99.90;;;;;;4993459;28;20552;-87
2023/12/20 00:39:06;;;;;;;9.80;6.27;;;9.40;99.90;;;;;;5019566;28;20188;-86
2023/12/20 00:41:32;;;;;;;7.80;5.87;;;9.40;99.90;;;;;;4983354;28;20622;-86
2023/12/20 00:43:58;;;;;;;7.60;6.07;;;9.40;99.90;;;;;;5014134;28;20515;-86
2023/12/20 00:46:24;;;;;;;7.40;5.53;;;9.40;99.90;;;;;;4969648;28;20467;-87
2023/12/20 00:48:52;;;;;;;8.10;6.27;;;9.40;99.90;;;;;;5006199;28;20457;-87
2023/12/20 00:51:18;;;;;;;6.93;5.30;;;9.40;99.90;;;;;;4995459;28;20201;-87
2023/12/20 00:53:44;;;;;;;7.73;5.40;;;9.40;99.90;;;;;;4962609;28;20440;-86
2023/12/20 00:56:13;;;;;;;8.83;6.23;;;9.40;99.90;;;;;;4979570;28;20908;-86
2023/12/20 00:58:39;;;;;;;6.97;5.27;;;9.40;99.90;;;;;;4968248;28;20440;-87
2023/12/20 01:01:05;;;;;;;7.67;5.97;;;9.40;99.90;;;;;;4995166;28;20553;-87
2023/12/20 01:03:36;;;;;;;9.00;6.37;;;9.40;99.90;;;;;;4963212;28;20197;-87
2023/12/20 01:06:04;;;;;;;7.77;6.17;;;9.40;99.90;;;;;;4994806;28;20592;-87
2023/12/20 01:08:34;;;;;;;9.10;5.70;;;9.40;99.90;;;;;;4979942;28;20438;-87
2023/12/20 01:11:03;;;;;;;7.03;5.47;;;9.40;99.90;;;;;;4980402;28;20481;-86
2023/12/20 01:13:31;;;;;;;13.07;6.63;;;9.40;99.90;;;;;;4984108;28;20464;-87
2023/12/20 01:15:59;;;;;;;8.60;5.80;;;9.40;99.90;;;;;;4986807;28;20936;-87
2023/12/20 01:18:25;;;;;;;7.07;4.93;;;9.40;99.90;;;;;;5012235;28;20425;-85
2023/12/20 01:20:51;;;;;;;14.80;7.50;;;9.40;99.90;;;;;;5004226;28;20472;-86
2023/12/20 01:23:19;;;;;;;9.07;6.37;;;9.40;99.90;;;;;;4995068;28;20220;-87
2023/12/20 01:25:45;;;;;;;10.00;6.43;;;9.40;99.90;;;;;;5008369;28;20460;-88
2023/12/20 01:28:11;;;;;;;8.07;6.33;;;9.40;99.90;;;;;;4995207;28;20928;-88
2023/12/20 01:30:37;;;;;;;13.20;6.50;;;9.40;99.90;;;;;;4979902;28;20452;-86
2023/12/20 01:33:03;;;;;;;10.20;7.20;;;9.40;99.90;;;;;;4978639;28;20840;-86
2023/12/20 01:35:29;;;;;;;10.70;6.60;;;9.40;99.90;;;;;;5003765;28;20439;-87
2023/12/20 01:37:57;;;;;;;9.17;7.00;;;9.40;99.90;;;;;;4995683;28;20424;-87
2023/12/20 01:40:23;;;;;;;11.63;7.73;;;9.40;99.90;;;;;;4982931;28;20206;-87
2023/12/20 01:43:06;;;;;;;12.37;6.73;;;9.40;99.90;;;;;;4976244;28;20510;-87
2023/12/20 01:45:32;;;;;;;9.53;7.20;;;9.30;99.90;;;;;;4985527;28;20456;-88
2023/12/20 01:47:59;;;;;;;10.07;7.60;;;9.40;99.90;;;;;;4965500;28;20443;-86
2023/12/20 01:50:25;;;;;;;17.20;8.10;;;9.40;99.90;;;;;;5007738;28;20754;-88
2023/12/20 01:52:57;;;;;;;14.53;8.60;;;9.30;99.90;;;;;;4994706;28;20448;-86
2023/12/20 01:55:27;;;;;;;10.60;6.80;;;9.40;99.90;;;;;;4996742;28;20480;-88
2023/12/20 01:58:15;;;;;;;12.53;7.30;;;9.40;99.90;;;;;;4983061;28;20535;-87
2023/12/20 02:00:41;;;;;;;9.50;6.87;;;9.40;99.90;;;;;;4980406;28;20473;-88
2023/12/20 02:03:07;;;;;;;11.47;6.93;;;9.40;99.90;;;;;;4986066;28;20444;-88
2023/12/20 02:05:37;;;;;;;11.30;7.00;;;9.40;99.90;;;;;;4998640;28;20540;-86
2023/12/20 02:08:06;;;;;;;9.70;6.47;;;9.40;99.90;;;;;;4978484;28;20479;-87
2023/12/20 02:10:32;;;;;;;9.40;7.30;;;9.40;99.90;;;;;;4966833;28;20433;-87
2023/12/20 02:12:58;;;;;;;11.23;6.90;;;9.40;99.90;;;;;;4999795;28;20435;-88
2023/12/20 02:15:24;;;;;;;9.27;6.17;;;9.40;99.90;;;;;;5010446;28;21071;-87
2023/12/20 02:17:50;;;;;;;8.50;6.40;;;9.40;99.90;;;;;;4980933;28;20461;-87
2023/12/20 02:20:17;;;;;;;9.47;6.33;;;9.40;99.90;;;;;;5017339;28;20522;-88
2023/12/20 02:22:42;;;;;;;7.73;5.80;;;9.40;99.90;;;;;;5001497;28;20476;-88
2023/12/20 02:25:08;;;;;;;9.17;6.10;;;9.30;99.90;;;;;;4992989;28;20454;-88
2023/12/20 02:27:35;;;;;;;9.13;6.17;;;9.30;99.90;;;;;;4992066;28;20266;-88
2023/12/20 02:30:00;;;;;;;9.00;6.23;;;9.30;99.90;;;;;;4986557;28;20438;-87
2023/12/20 02:32:27;;;;;;;9.70;5.90;;;9.30;99.90;;;;;;4997649;28;20553;-88
2023/12/20 02:34:53;;;;;;;6.93;5.60;;;9.30;99.90;;;;;;4973354;28;20452;-88
2023/12/20 02:37:21;;;;;;;7.87;6.13;;;9.30;99.90;;;;;;5008727;28;20452;-88
2023/12/20 02:39:50;;;;;;;11.97;6.13;;;9.30;99.90;;;;;;5007690;28;20471;-88
2023/12/20 02:42:16;;;;;;;9.23;5.77;;;9.40;99.90;;;;;;5003596;28;20982;-87
2023/12/20 02:44:44;;;;;;;7.60;6.30;;;9.30;99.90;;;;;;5017618;28;20437;-87
2023/12/20 02:47:10;;;;;;;8.20;6.07;;;9.30;99.90;;;;;;4983517;28;20276;-88
2023/12/20 02:49:38;;;;;;;11.40;6.43;;;9.30;99.90;;;;;;5015287;28;20452;-86
2023/12/20 02:52:04;;;;;;;6.20;5.23;;;9.30;99.90;;;;;;4982115;28;20457;-87
2023/12/20 02:54:33;;;;;;;11.60;4.60;;;9.30;99.90;;;;;;4997615;28;20817;-87
2023/12/20 02:56:58;;;;;;;8.40;5.33;;;9.30;99.90;;;;;;4979546;28;20469;-87
2023/12/20 02:59:29;;;;;;;8.60;4.70;;;9.30;99.90;;;;;;4997945;28;20444;-87
2023/12/20 03:01:55;;;;;;;7.67;5.40;;;9.30;99.90;;;;;;5003748;28;20468;-86
2023/12/20 03:04:21;;;;;;;8.73;5.53;;;9.30;99.90;;;;;;4985814;28;20468;-86
2023/12/20 03:06:49;;;;;;;8.03;5.03;;;9.30;99.90;;;;;;5002757;28;20785;-87
2023/12/20 03:09:17;;;;;;;7.13;5.00;;;9.30;99.90;;;;;;4997427;28;21120;-87
2023/12/20 03:11:43;;;;;;;8.03;4.80;;;9.30;99.90;;;;;;5000899;28;20424;-85
2023/12/20 03:14:09;;;;;;;10.03;5.40;;;9.30;99.90;;;;;;4997204;28;21020;-87
2023/12/20 03:16:37;;;;;;;8.30;4.97;;;9.30;99.90;;;;;;4961134;28;20548;-87
2023/12/20 03:19:04;;;;;;;5.53;3.83;;;9.30;99.90;;;;;;5009886;28;20517;-86
2023/12/20 03:21:29;;;;;;;10.83;4.73;;;9.30;99.90;;;;;;5004038;28;20479;-87
2023/12/20 03:23:55;;;;;;;6.43;3.73;;;9.30;99.90;;;;;;5006008;28;20455;-87
2023/12/20 03:26:22;;;;;;;6.20;4.13;;;9.30;99.90;;;;;;4997015;28;20520;-86
2023/12/20 03:28:48;;;;;;;7.03;4.23;;;9.30;99.90;;;;;;4964942;28;20459;-88
2023/12/20 03:31:14;;;;;;;7.27;3.83;;;9.30;99.90;;;;;;5000709;28;20818;-88
2023/12/20 03:33:43;;;;;;;7.43;3.97;;;9.30;99.90;;;;;;4981508;28;20558;-88
2023/12/20 03:36:08;;;;;;;8.10;4.30;;;9.30;99.90;;;;;;5012448;28;20271;-87
2023/12/20 03:38:34;;;;;;;9.37;4.10;;;9.20;99.90;;;;;;4997118;28;20436;-86
2023/12/20 03:41:00;;;;;;;6.23;3.97;;;9.20;99.90;;;;;;5012808;28;20569;-87
2023/12/20 03:43:26;;;;;;;6.83;4.10;;;9.20;99.90;;;;;;4997045;28;20621;-87
2023/12/20 03:45:52;;;;;;;7.00;3.40;;;9.20;99.90;;;;;;4990532;28;20441;-87
2023/12/20 03:48:22;;;;;;;6.67;3.73;;;9.20;99.90;;;;;;5001717;28;20452;-86
2023/12/20 03:50:50;;;;;;;13.77;4.50;;;9.20;99.90;;;;;;5015533;28;20825;-88
2023/12/20 03:53:19;;;;;;;6.77;3.70;;;9.20;99.90;;;;;;4996070;28;20550;-88
2023/12/20 03:55:45;;;;;;;12.43;5.10;;;9.20;99.90;;;;;;4968692;28;20479;-87
2023/12/20 03:58:13;;;;;;;7.73;3.80;;;9.20;99.90;;;;;;5000981;28;20436;-88
2023/12/20 04:00:39;;;;;;;17.07;3.77;;;9.20;99.90;;;;;;4997936;28;20447;-88
2023/12/20 04:03:07;;;;;;;7.33;3.77;;;9.20;99.90;;;;;;4981606;28;20456;-87
2023/12/20 04:05:33;;;;;;;8.53;3.60;;;9.20;99.90;;;;;;4992420;28;20444;-88
2023/12/20 04:08:02;;;;;;;10.00;3.70;;;9.20;99.90;;;;;;5012665;28;20460;-87
2023/12/20 04:10:27;;;;;;;8.97;3.63;;;9.20;99.90;;;;;;4996023;28;20440;-86
2023/12/20 04:12:54;;;;;;;7.07;3.90;;;9.20;99.90;;;;;;5021395;28;20426;-86
2023/12/20 04:15:20;;;;;;;5.83;3.43;;;9.20;99.90;;;;;;5012172;28;20540;-87
2023/12/20 04:17:46;;;;;;;6.07;3.43;;;9.20;99.90;;;;;;4988870;28;21039;-87
2023/12/20 04:20:12;;;;;;;5.77;3.57;;;9.20;99.90;;;;;;4986696;28;20436;-87
2023/12/20 04:22:42;;;;;;;9.53;3.60;;;9.20;99.90;;;;;;5005492;28;20484;-87
2023/12/20 04:25:08;;;;;;;11.20;3.70;;;9.20;99.90;;;;;;5003425;28;20432;-88
2023/12/20 04:27:36;;;;;;;6.53;3.90;;;9.20;99.90;;;;;;5003647;28;20456;-87
2023/12/20 04:30:07;;;;;;;7.47;3.80;;;9.20;99.90;;;;;;5001390;28;20438;-85
2023/12/20 04:32:35;;;;;;;8.03;3.87;;;9.20;99.90;;;;;;5003257;28;21164;-86
2023/12/20 04:35:01;;;;;;;7.30;3.67;;;9.20;99.90;;;;;;4994716;28;20425;-87
2023/12/20 04:37:30;;;;;;;6.67;3.90;;;9.20;99.90;;;;;;5011265;28;20432;-88
2023/12/20 04:39:56;;;;;;;6.70;4.10;;;9.20;99.90;;;;;;4994916;28;20495;-87
2023/12/20 04:42:24;;;;;;;6.03;3.37;;;9.20;99.90;;;;;;4999577;28;20212;-86
2023/12/20 04:44:50;;;;;;;9.57;4.20;;;9.20;99.90;;;;;;4985690;28;20507;-87
2023/12/20 04:47:16;;;;;;;9.73;4.47;;;9.20;99.90;;;;;;5004807;28;20535;-85
2023/12/20 04:49:44;;;;;;;9.70;4.17;;;9.10;99.90;;;;;;5012663;28;20760;-86
2023/12/20 04:52:10;;;;;;;12.90;4.20;;;9.20;99.90;;;;;;5006948;28;20461;-86
2023/12/20 04:54:41;;;;;;;5.10;4.00;;;9.20;99.90;;;;;;4980823;28;20545;-87
2023/12/20 04:57:06;;;;;;;12.00;4.00;;;9.10;99.90;;;;;;5018117;28;20440;-86
2023/12/20 04:59:32;;;;;;;7.97;4.17;;;9.20;99.90;;;;;;4997500;28;20463;-87
2023/12/20 05:01:58;;;;;;;5.80;4.17;;;9.10;99.90;;;;;;5003227;28;20476;-86
2023/12/20 05:04:24;;;;;;;6.57;3.73;;;9.10;99.90;;;;;;5003492;28;20214;-87
2023/12/20 05:06:53;;;;;;;10.50;5.30;;;9.10;99.90;;;;;;5007100;28;20467;-86
2023/12/20 05:09:18;;;;;;;12.40;4.70;;;9.10;99.90;;;;;;5030921;28;20452;-86
2023/12/20 05:11:44;;;;;;;7.20;3.70;;;9.10;99.90;;;;;;5024648;28;20873;-87
2023/12/20 05:14:13;;;;;;;11.10;5.30;;;9.10;99.90;;;;;;5006643;28;20511;-86
2023/12/20 05:16:39;;;;;;;14.73;4.57;;;9.10;99.90;;;;;;5008817;28;21168;-88
2023/12/20 05:19:06;;;;;;;7.43;4.27;;;9.10;99.90;;;;;;4996413;28;20502;-86
2023/12/20 05:21:33;;;;;;;7.80;4.67;;;9.20;99.90;;;;;;4988595;28;20224;-86
2023/12/20 05:24:04;;;;;;;12.63;4.57;;;9.10;99.90;;;;;;5003383;28;20427;-88
2023/12/20 05:26:30;;;;;;;5.83;4.70;;;9.10;99.90;;;;;;5010998;28;20438;-87
2023/12/20 05:29:22;;;;;;;7.83;4.80;;;9.10;99.90;;;;;;5030621;28;20424;-87
2023/12/20 05:31:50;;;;;;;8.70;4.50;;;9.10;99.90;;;;;;4963955;28;20445;-88
2023/12/20 05:34:16;;;;;;;13.67;5.00;;;9.10;99.90;;;;;;4982822;28;20472;-86
2023/12/20 05:40:56;;;;;;;10.10;4.27;;;9.10;99.90;;;;;;5011518;28;20228;-85
2023/12/20 05:43:22;;;;;;;9.30;4.93;;;9.10;99.90;;;;;;4973938;28;20465;-88
2023/12/20 05:45:48;;;;;;;6.50;3.90;;;9.10;99.90;;;;;;4963722;28;21171;-87
2023/12/20 05:48:14;;;;;;;7.50;4.07;;;9.10;99.90;;;;;;5000432;28;20488;-86
2023/12/20 05:50:42;;;;;;;11.60;5.10;;;9.10;99.90;;;;;;4991106;28;20451;-85
2023/12/20 05:53:08;;;;;;;14.97;4.70;;;9.10;99.90;;;;;;5013108;28;20479;-87
2023/12/20 05:55:36;;;;;;;9.30;4.97;;;9.10;99.90;;;;;;5011571;28;20463;-86
2023/12/20 05:58:05;;;;;;;12.20;4.43;;;9.10;99.90;;;;;;4979224;28;20436;-87
2023/12/20 06:00:33;;;;;;;7.80;4.73;;;9.00;99.90;;;;;;4996849;28;20205;-87
2023/12/20 06:02:59;;;;;;;14.00;5.60;;;9.00;99.90;;;;;;4999149;28;20553;-85
2023/12/20 06:05:30;;;;;;;9.10;4.67;;;9.10;99.90;;;;;;4989084;28;20439;-87
2023/12/20 06:08:01;;;;;;;8.93;4.50;;;9.10;99.90;;;;;;4996790;28;20899;-85
2023/12/20 06:10:29;;;;;;;12.33;4.53;;;9.10;99.90;;;;;;5009132;28;21191;-87
2023/12/20 06:13:15;;;;;;;12.93;4.53;;;9.10;99.90;;;;;;5029705;28;20435;-87
2023/12/20 06:15:41;;;;;;;7.53;4.83;;;9.10;99.90;;;;;;4997325;28;20440;-88
2023/12/20 06:18:07;;;;;;;12.83;5.07;;;9.00;99.90;;;;;;4978328;28;20516;-87
2023/12/20 06:20:36;;;;;;;12.33;5.33;;;9.00;99.90;;;;;;4992856;28;21200;-87
2023/12/20 06:23:06;;;;;;;12.20;4.70;;;9.10;99.90;;;;;;5005822;28;20297;-86
2023/12/20 06:25:32;;;;;;;8.77;6.00;;;9.00;99.90;;;;;;5010185;28;20424;-85
2023/12/20 06:28:06;;;;;;;15.93;5.23;;;9.00;99.90;;;;;;4998353;28;20976;-87
2023/12/20 06:30:33;;;;;;;10.83;4.53;;;9.00;99.90;;;;;;4965858;28;20500;-87
2023/12/20 06:32:59;;;;;;;13.93;4.70;;;9.00;99.90;;;;;;4994785;28;20443;-90
2023/12/20 06:35:27;;;;;;;11.20;5.50;;;9.00;99.90;;;;;;4980474;28;20497;-87
2023/12/20 06:37:53;;;;;;;9.17;4.40;;;9.00;99.90;;;;;;5020699;28;20416;-88
2023/12/20 06:40:19;;;;;;;9.40;5.03;;;9.00;99.90;;;;;;4995822;28;20435;-88
2023/12/20 06:42:45;;;;;;;10.43;5.03;;;9.00;99.90;;;;;;5016474;28;20213;-87
2023/12/20 06:45:12;;;;;;;14.83;4.40;;;9.00;99.90;;;;;;5011099;28;20419;-89
2023/12/20 06:47:38;;;;;;;9.80;4.80;;;9.00;99.90;;;;;;4979585;28;20433;-88
2023/12/20 06:50:11;;;;;;;10.53;4.53;;;9.00;99.90;;;;;;4990024;28;20452;-89
2023/12/20 06:52:37;;;;;;;6.67;4.90;;;9.00;99.90;;;;;;5002877;28;20591;-88
2023/12/20 06:55:08;;;;;;;15.90;5.10;;;9.00;99.90;;;;;;5012100;28;20447;-89
2023/12/20 06:57:36;;;;;;;9.90;6.50;;;9.00;99.90;;;;;;5000786;28;20203;-86
2023/12/20 07:00:02;;;;;;;7.47;4.77;;;9.00;99.90;;;;;;4996257;28;20787;-88
2023/12/20 07:02:30;;;;;;;9.30;4.70;;;9.00;99.90;;;;;;5006012;28;20905;-88
2023/12/20 07:05:01;;;;;;;8.20;4.60;;;9.00;99.90;;;;;;4970890;28;20433;-89
2023/12/20 07:07:36;;;;;;;13.83;4.83;;;9.00;99.90;;;;;;5002160;28;20906;-87
2023/12/20 07:10:02;;;;;;;13.20;5.53;;;9.00;99.90;;;;;;5015104;28;20439;-89
2023/12/20 07:12:28;;;;;;;10.10;6.00;;;9.00;99.90;;;;;;4995124;28;21103;-87
2023/12/20 07:14:54;;;;;;;15.10;4.60;;;9.00;99.90;;;;;;4998199;28;20522;-85
2023/12/20 07:18:11;;;;;;;8.03;4.27;;;9.00;99.90;;;;;;5031423;28;20928;-90
2023/12/20 07:20:37;;;;;;;11.47;4.60;;;9.00;99.90;;;;;;5015881;28;20865;-87
2023/12/20 07:23:03;;;;;;;11.00;4.57;;;9.00;99.90;;;;;;5010620;28;20456;-87
2023/12/20 07:25:32;;;;;;;11.10;4.73;;;9.00;99.90;;;;;;5014670;28;20503;-86
2023/12/20 07:28:01;;;;;;;10.60;4.87;;;9.00;99.90;;;;;;5011175;28;20457;-89
2023/12/20 07:30:28;;;;;;;9.33;4.80;;;9.00;99.90;;;;;;4987685;28;20469;-89
2023/12/20 07:32:54;;;;;;;9.30;4.83;;;9.00;99.90;;;;;;4989639;28;20928;-88
2023/12/20 07:35:22;;;;;;;11.50;4.60;;;9.00;99.90;;;;;;4990959;28;20548;-88
2023/12/20 07:37:48;;;;;;;9.40;5.47;;;9.00;99.90;;;;;;4996969;28;20444;-87
2023/12/20 07:40:32;;;;;;;11.93;4.93;;;9.00;99.90;;;;;;5019951;28;20725;-86
2023/12/20 07:43:00;;;;;;;9.20;4.50;;;9.00;99.90;;;;;;4996998;28;20469;-88
2023/12/20 07:45:28;;;;;;;6.27;4.43;;;9.00;99.90;;;;;;5010208;28;20435;-90
2023/12/20 07:47:56;;;;;;;11.50;4.40;;;9.00;99.90;;;;;;4992136;28;20928;-88
2023/12/20 07:50:22;;;;;;;6.20;4.60;;;9.00;99.90;;;;;;4981801;28;21014;-87
2023/12/20 07:52:48;;;;;;;10.70;4.63;;;9.00;99.90;;;;;;5000626;28;20432;-88
2023/12/20 07:55:34;;;;;;;12.13;6.27;;;9.00;99.90;;;;;;4975815;28;20457;-88
2023/12/20 07:58:01;;;;;;;8.60;4.30;;;9.00;99.90;;;;;;4981451;28;20772;-88
2023/12/20 08:00:27;;;;;;;11.17;5.60;;;9.00;99.90;;;;;;5029420;28;20527;-90
2023/12/20 08:02:53;;;;;;;12.43;4.50;;;9.00;99.90;;;;;;4999092;28;20886;-89
2023/12/20 08:05:19;;;;;;;10.63;5.30;;;9.00;99.90;;;;;;4974909;28;20527;-90
2023/12/20 08:08:19;;;;;;;11.70;4.70;;;9.00;99.90;;;;;;4986022;28;20451;-90
2023/12/20 08:10:45;;;;;;;9.53;4.37;;;9.00;99.90;;;;;;4994384;28;20516;-90
2023/12/20 08:13:11;;;;;;;11.67;5.20;;;9.00;99.90;;;;;;5012987;28;20512;-89
2023/12/20 08:15:37;;;;;;;9.53;5.40;;;9.00;99.90;;;;;;5002407;28;20450;-88
2023/12/20 08:18:04;;;;;;;11.17;4.80;;;9.00;99.90;;;;;;5020299;28;20546;-87
2023/12/20 08:20:29;;;;;;;16.00;5.60;;;9.00;99.90;;;;;;5012581;28;20421;-89
2023/12/20 08:22:55;;;;;;;12.53;4.83;;;9.00;99.90;;;;;;4990677;28;20495;-89
2023/12/20 08:25:21;;;;;;;11.30;5.93;;;9.00;99.90;;;;;;5004276;28;20476;-87
2023/12/20 08:27:47;;;;;;;10.03;4.83;;;9.00;99.90;;;;;;5010244;28;20899;-87
2023/12/20 08:30:13;;;;;;;10.17;4.97;;;9.00;99.90;;;;;;5013847;28;20416;-89
2023/12/20 08:32:39;;;;;;;12.73;5.40;;;9.00;99.90;;;;;;5005619;28;21371;-88
2023/12/20 08:35:08;;;;;;;9.07;5.00;;;9.00;99.90;;;;;;4998563;28;20459;-88
2023/12/20 08:37:35;;;;;;;12.03;5.10;;;9.00;99.90;;;;;;4977766;28;20503;-88
2023/12/20 08:40:04;;;;;;;8.47;4.47;;;9.00;99.90;;;;;;5014959;28;20518;-90
2023/12/20 08:42:31;;;;;;;9.47;5.20;;;9.00;99.90;;;;;;4992543;28;20487;-89
2023/12/20 08:45:01;;;;;;;7.00;4.53;;;9.00;99.90;;;;;;5002620;28;20444;-87
2023/12/20 08:47:27;;;;;;;10.60;5.27;;;9.00;99.90;;;;;;5007693;28;20546;-87
2023/12/20 08:49:56;;;;;;;15.10;5.23;;;9.00;99.90;;;;;;4976179;28;20428;-88
2023/12/20 08:52:27;;;;;;;9.00;4.70;;;9.00;99.90;;;;;;4963571;28;20446;-87
2023/12/20 08:54:55;;;;;;;12.53;4.60;;;9.00;99.90;;;;;;5028551;28;21011;-87
2023/12/20 08:57:23;;;;;;;13.13;4.40;;;9.00;99.90;;;;;;5011750;28;20432;-89
2023/12/20 08:59:52;;;;;;;12.13;5.60;;;9.00;99.90;;;;;;4997022;28;20497;-92
2023/12/20 09:02:18;;;;;;;14.17;4.70;;;9.00;99.90;;;;;;4986013;28;20474;-89
2023/12/20 09:04:44;;;;;;;12.67;5.30;;;9.00;99.90;;;;;;5029591;28;20420;-87
2023/12/20 09:07:22;;;;;;;15.50;4.90;;;9.00;99.90;;;;;;4990322;28;20445;-88
2023/12/20 09:09:48;;;;;;;9.97;4.53;;;9.00;99.90;;;;;;5023570;28;20424;-88
2023/12/20 09:12:27;;;;;;;11.43;4.97;;;9.00;99.90;;;;;;4985147;28;20455;-91
2023/12/20 09:14:53;;;;;;;6.97;3.97;;;9.00;99.90;;;;;;5026116;28;20531;-89
2023/12/20 09:17:22;;;;;;;11.47;4.37;;;9.00;99.90;;;;;;5027588;28;20451;-88
2023/12/20 09:19:48;;;;;;;9.73;4.50;;;9.00;99.90;;;;;;4993490;28;20991;-86
2023/12/20 09:22:14;;;;;;;10.80;4.50;;;9.00;99.90;;;;;;4977976;28;20473;-89
2023/12/20 09:24:40;;;;;;;8.40;4.10;;;9.00;99.90;;;;;;4993842;28;20517;-89
2023/12/20 09:27:06;;;;;;;7.97;4.63;;;8.90;99.90;;;;;;5003434;28;20444;-88
2023/12/20 09:29:32;;;;;;;13.97;4.30;;;9.00;99.90;;;;;;4990436;28;20467;-89
2023/12/20 09:32:00;;;;;;;9.43;3.97;;;9.00;99.90;;;;;;5017929;23;20532;-34
2023/12/20 09:34:32;;;;;;;5.33;3.40;;;9.00;99.90;;;;;;4984580;28;20954;-36
2023/12/20 09:36:58;;;;;;;10.37;4.20;;;9.00;99.90;;;;;;4951193;28;20447;-35
2023/12/20 09:39:26;;;;;;;13.40;4.13;;;9.00;99.90;;;;;;4972946;28;20418;-32
2023/12/20 09:42:15;;;;;;;8.60;5.20;;;9.00;99.90;;;;;;4989014;28;20559;-35
2023/12/20 09:44:42;;;;;;;11.43;4.43;;;9.00;99.90;;;;;;4988932;28;20514;-37
2023/12/20 09:47:08;;;;;;;11.33;4.50;;;9.00;99.90;;;;;;4979327;28;20516;-35
2023/12/20 09:49:37;;;;;;;9.30;4.50;;;9.00;99.90;;;;;;4967251;28;20920;-33
2023/12/20 09:52:06;;;;;;;16.60;4.10;;;9.00;99.90;;;;;;4969691;28;20428;-39
2023/12/20 09:54:34;;;;;;;10.87;4.33;;;9.00;99.90;;;;;;4984439;28;20437;-33
2023/12/20 09:57:00;;;;;;;12.67;4.20;;;9.00;99.90;;;;;;4972630;28;20452;-38
2023/12/20 09:59:26;;;;;;;11.70;4.17;;;9.00;99.90;;;;;;4985480;28;20430;-37
2023/12/20 10:01:55;;;;;;;8.23;4.03;;;9.00;99.90;;;;;;4982363;28;20488;-38
2023/12/20 10:04:21;;;;;;;6.90;3.70;;;9.00;99.90;;;;;;4967906;28;21122;-35
2023/12/20 10:06:47;;;;;;;13.07;4.23;;;9.00;99.90;;;;;;4985271;28;20441;-36
2023/12/20 10:09:14;;;;;;;6.40;3.67;;;9.00;99.90;;;;;;4970460;28;20928;-36
2023/12/20 10:11:40;;;;;;;10.77;4.50;;;9.00;99.90;;;;;;4969382;28;20425;-31
2023/12/20 10:14:07;;;;;;;9.90;4.27;;;9.00;99.90;;;;;;4984449;28;20476;-38
2023/12/20 10:16:33;;;;;;;8.23;3.77;;;9.00;99.90;;;;;;4988241;28;20449;-36
2023/12/20 10:19:04;;;;;;;12.53;4.37;;;9.00;99.90;;;;;;4970095;28;20511;-38
2023/12/20 10:21:33;;;;;;;15.33;3.93;;;9.00;99.90;;;;;;4957400;28;20478;-38
2023/12/20 10:24:00;;;;;;;8.53;3.63;;;9.00;99.90;;;;;;4988764;28;20614;-39
2023/12/20 10:26:31;;;;;;;8.37;3.70;;;9.00;99.90;;;;;;4979445;28;20531;-35
2023/12/20 10:29:00;;;;;;;6.33;3.50;;;9.00;99.90;;;;;;4994286;28;20463;-34
2023/12/20 10:31:28;;;;;;;9.60;4.27;;;9.00;99.90;;;;;;4979584;28;20440;-37
2023/12/20 10:33:59;;;;;;;14.37;5.30;;;9.00;99.90;;;;;;4978007;28;20452;-35
2023/12/20 10:36:27;;;;;;;12.77;4.00;;;9.00;99.90;;;;;;4975611;28;20453;-34
2023/12/20 10:38:57;;;;;;;12.50;4.73;;;9.00;99.90;;;;;;4997281;28;20424;-29
2023/12/20 10:41:32;;;;;;;9.40;3.80;;;9.00;99.90;;;;;;4966371;28;20487;-31
2023/12/20 10:44:24;;;;;;;7.47;3.23;;;9.00;99.90;;;;;;4972529;28;20519;-33
2023/12/20 10:46:51;;;;;;;9.90;3.97;;;9.00;99.90;;;;;;4980626;28;20463;-40
2023/12/20 10:49:18;;;;;;;13.17;4.00;;;9.00;99.90;;;;;;4985056;28;20996;-41
2023/12/20 10:51:50;;;;;;;8.83;4.03;;;9.00;99.90;;;;;;4981392;28;20852;-43
2023/12/20 10:54:18;;;;;;;14.77;5.13;;;9.00;99.90;;;;;;4979991;28;20977;-39
2023/12/20 10:56:51;;;;;;;11.90;4.50;;;9.00;99.90;;;;;;4980721;28;20526;-33
2023/12/20 10:59:22;;;;;;;6.13;3.93;;;9.00;99.90;;;;;;4962403;28;20417;-35
2023/12/20 11:01:52;;;;;;;13.83;4.57;;;9.00;99.90;;;;;;4963454;28;20472;-36
2023/12/20 11:04:25;;;;;;;13.97;3.80;;;9.00;99.90;;;;;;4964738;28;20422;-38
2023/12/20 11:07:17;;;;;;;8.00;4.20;;;9.00;99.90;;;;;;4962791;28;20508;-40
2023/12/20 11:09:52;;;;;;;11.90;3.67;;;9.00;99.90;;;;;;4962927;28;20457;-38
2023/12/20 11:12:21;;;;;;;10.47;5.00;;;9.00;99.90;;;;;;4962330;28;20515;-44
2023/12/20 11:14:50;;;;;;;7.17;4.70;;;9.00;99.90;;;;;;4980970;28;20496;-38
2023/12/20 11:17:19;;;;;;;13.23;5.13;;;9.00;99.90;;;;;;4962943;28;20461;-39
2023/12/20 11:19:57;;;;;;;9.97;4.33;;;9.00;99.90;;;;;;4980630;28;20445;-39
2023/12/20 11:22:30;;;;;;;11.80;4.30;;;9.00;99.90;;;;;;4979649;28;20527;-39
2023/12/20 11:25:06;;;;;;;8.43;4.57;;;9.00;99.90;;;;;;4980894;28;20430;-38
2023/12/20 11:27:32;;;;;;;13.10;5.67;;;9.00;99.90;;;;;;4980394;28;20426;-42
2023/12/20 11:30:01;;;;;;;9.40;4.23;;;9.00;99.90;;;;;;4980057;28;20428;-41
2023/12/20 11:35:16;;;;;;;8.67;3.83;;;9.00;99.90;;;;;;4946513;28;20433;-40
2023/12/20 11:37:42;;;;;;;8.80;4.13;;;9.00;99.90;;;;;;4984170;28;20523;-41
2023/12/20 11:40:18;;;;;;;11.87;4.40;;;9.00;99.90;;;;;;4990073;28;20827;-31
2023/12/20 11:42:49;;;;;;;8.50;4.50;;;9.00;99.90;;;;;;4987781;28;21109;-33
2023/12/20 11:45:25;;;;;;;10.53;5.10;;;9.00;99.90;;;;;;4987935;28;20461;-32
2023/12/20 11:47:54;;;;;;;9.27;3.50;;;9.00;99.90;;;;;;4971049;28;20496;-33
2023/12/20 11:50:23;;;;;;;9.00;4.10;;;9.10;99.90;;;;;;4971592;28;20454;-37
2023/12/20 11:52:51;;;;;;;10.30;4.27;;;9.00;99.90;;;;;;4976254;28;20455;-31
2023/12/20 11:55:18;;;;;;;13.50;4.10;;;9.00;99.90;;;;;;4978616;28;20456;-31
2023/12/20 11:57:44;;;;;;;8.50;4.33;;;9.00;99.90;;;;;;4973149;28;20434;-32
2023/12/20 12:00:11;;;;;;;9.57;4.10;;;9.00;99.90;;;;;;4980655;28;20433;-35
2023/12/20 12:02:41;;;;;;;13.63;4.80;;;9.10;99.90;;;;;;4984457;28;20532;-35
2023/12/20 12:05:07;;;;;;;9.07;4.47;;;9.10;99.90;;;;;;4981013;28;20585;-33
2023/12/20 12:07:34;;;;;;;9.23;3.67;;;9.10;99.90;;;;;;4984223;28;21211;-33
2023/12/20 12:10:04;;;;;;;11.00;4.10;;;9.10;99.90;;;;;;4955398;28;21102;-35
2023/12/20 12:12:32;;;;;;;9.60;4.63;;;9.10;99.90;;;;;;4948668;28;20513;-30
2023/12/20 12:14:59;;;;;;;18.30;4.57;;;9.10;99.90;;;;;;4954184;28;20451;-34
2023/12/20 12:17:25;;;;;;;7.77;4.30;;;9.10;99.90;;;;;;4984780;28;21352;-31
2023/12/20 12:20:03;;;;;;;12.73;4.50;;;9.10;99.90;;;;;;4986632;28;20499;-30
2023/12/20 12:22:32;;;;;;;7.23;4.40;;;9.10;99.90;;;;;;4961470;28;21216;-35
2023/12/20 12:25:11;;;;;;;8.57;3.93;;;9.10;99.90;;;;;;4970374;28;20420;-34
2023/12/20 12:27:38;;;;;;;13.70;4.30;;;9.10;99.90;;;;;;4985531;28;20413;-36
2023/12/20 12:30:07;;;;;;;9.47;4.20;;;9.10;99.90;;;;;;4984592;28;20444;-30
2023/12/20 12:32:36;;;;;;;11.67;4.53;;;9.10;99.90;;;;;;4989526;28;21215;-33
2023/12/20 12:35:08;;;;;;;9.43;5.50;;;9.10;99.90;;;;;;4980086;28;21034;-31
2023/12/20 12:37:38;;;;;;;10.93;4.60;;;9.10;99.90;;;;;;4988534;28;20464;-32
2023/12/20 12:40:06;;;;;;;9.17;4.60;;;9.10;99.90;;;;;;4986789;28;20944;-33
2023/12/20 12:42:32;;;;;;;12.73;4.80;;;9.10;99.90;;;;;;4965415;28;20560;-30
2023/12/20 12:44:58;;;;;;;10.47;4.87;;;9.10;99.90;;;;;;4981710;28;20868;-37
2023/12/20 12:47:25;;;;;;;7.30;3.93;;;9.00;99.90;;;;;;4972659;28;20456;-33
2023/12/20 12:49:53;;;;;;;9.70;4.67;;;9.10;99.90;;;;;;4968543;28;20469;-34
2023/12/20 12:52:20;;;;;;;11.03;4.57;;;9.10;99.90;;;;;;4970593;28;20443;-33
2023/12/20 12:55:15;;;;;;;11.27;4.70;;;9.10;99.90;;;;;;4968038;28;20437;-33
2023/12/20 12:57:46;;;;;;;8.57;4.73;;;9.10;99.90;;;;;;4976236;28;20936;-38
2023/12/20 13:00:13;;;;;;;8.27;4.20;;;9.10;99.90;;;;;;4915718;28;20476;-30
2023/12/20 13:02:41;;;;;;;11.20;4.43;;;9.10;99.90;;;;;;4970018;28;21324;-32
2023/12/20 13:05:09;;;;;;;11.10;5.43;;;9.10;99.90;;;;;;4951137;28;20484;-37
2023/12/20 13:07:35;;;;;;;10.47;4.50;;;9.10;99.90;;;;;;4952675;28;20726;-28